createdAt,value
2019-02-06T00:00:47.596Z,1.25
2019-02-06T00:03:19.569Z,1.29
2019-02-06T00:05:46.817Z,1.37
2019-02-06T00:08:14.012Z,1.31
2019-02-06T00:10:41.341Z,1.37
2019-02-06T00:13:08.367Z,1.29
2019-02-06T00:15:35.674Z,1.38
2019-02-06T00:18:02.750Z,1.45
2019-02-06T00:20:30.487Z,1.40
2019-02-06T00:22:57.672Z,1.47
2019-02-06T00:25:24.659Z,1.46
2019-02-06T00:27:51.800Z,1.39
2019-02-06T00:30:20.596Z,1.39
2019-02-06T00:32:47.952Z,1.41
2019-02-06T00:35:25.585Z,1.24
2019-02-06T00:37:44.593Z,1.31
2019-02-06T00:40:11.553Z,1.47
2019-02-06T00:42:38.506Z,1.51
2019-02-06T00:45:10.057Z,1.51
2019-02-06T00:47:36.992Z,1.45
2019-02-06T00:50:09.701Z,1.48
2019-02-06T00:52:36.960Z,1.49
2019-02-06T00:55:05.289Z,1.54
2019-02-06T00:57:32.736Z,1.57
2019-02-06T00:59:59.573Z,1.67
2019-02-06T01:02:26.497Z,1.50
2019-02-06T01:04:53.367Z,1.47
2019-02-06T01:07:20.339Z,1.34
2019-02-06T01:09:47.513Z,1.49
2019-02-06T01:12:14.409Z,1.50
2019-02-06T01:14:41.433Z,1.49
2019-02-06T01:17:07.952Z,1.32
2019-02-06T01:19:34.548Z,1.36
2019-02-06T01:22:01.100Z,1.36
2019-02-06T01:24:27.759Z,1.37
2019-02-06T01:26:54.362Z,1.22
2019-02-06T01:29:21.043Z,1.27
2019-02-06T01:31:49.221Z,1.31
2019-02-06T01:34:15.887Z,1.40
2019-02-06T01:36:42.594Z,1.43
2019-02-06T01:39:11.254Z,1.45
2019-02-06T01:41:38.040Z,1.45
2019-02-06T01:44:04.558Z,1.41
2019-02-06T01:46:31.162Z,1.30
2019-02-06T01:48:57.730Z,1.26
2019-02-06T01:51:24.773Z,1.48
2019-02-06T01:53:51.497Z,1.48
2019-02-06T01:56:18.020Z,1.35
2019-02-06T01:58:44.584Z,1.29
2019-02-06T02:01:11.275Z,1.32
2019-02-06T02:03:37.837Z,1.50
2019-02-06T02:06:04.591Z,1.52
2019-02-06T02:08:33.073Z,1.44
2019-02-06T02:11:00.067Z,1.47
2019-02-06T02:13:26.635Z,1.32
2019-02-06T02:15:53.374Z,1.19
2019-02-06T02:18:19.933Z,1.35
2019-02-06T02:20:46.541Z,1.43
2019-02-06T02:23:13.273Z,1.34
2019-02-06T02:25:40.137Z,1.38
2019-02-06T02:28:06.714Z,1.36
2019-02-06T02:30:35.500Z,1.45
2019-02-06T02:33:02.337Z,1.41
2019-02-06T02:35:28.890Z,1.27
2019-02-06T02:37:55.481Z,1.45
2019-02-06T02:40:22.080Z,1.46
2019-02-06T02:42:48.727Z,1.55
2019-02-06T02:45:17.065Z,1.60
2019-02-06T02:47:44.240Z,1.42
2019-02-06T02:50:11.049Z,1.43
2019-02-06T02:52:37.726Z,1.49
2019-02-06T02:55:08.129Z,1.43
2019-02-06T02:57:34.740Z,1.58
2019-02-06T03:00:04.540Z,1.50
2019-02-06T03:02:33.084Z,1.49
2019-02-06T03:05:00.487Z,1.46
2019-02-06T03:07:27.118Z,1.51
2019-02-06T03:09:53.669Z,1.55
2019-02-06T03:12:20.224Z,1.52
2019-02-06T03:14:46.829Z,1.59
2019-02-06T03:17:13.524Z,1.52
2019-02-06T03:19:40.327Z,1.58
2019-02-06T03:22:06.927Z,1.80
2019-02-06T03:24:33.970Z,1.70
2019-02-06T03:27:00.583Z,1.44
2019-02-06T03:29:27.188Z,1.64
2019-02-06T03:31:53.768Z,1.71
2019-02-06T03:34:20.513Z,1.51
2019-02-06T03:36:47.155Z,1.50
2019-02-06T03:39:13.797Z,1.63
2019-02-06T03:41:40.440Z,1.66
2019-02-06T03:44:07.690Z,1.70
2019-02-06T03:46:34.239Z,1.84
2019-02-06T03:49:00.853Z,1.57
2019-02-06T03:51:27.684Z,1.50
2019-02-06T03:53:54.309Z,1.65
2019-02-06T03:56:20.896Z,1.63
2019-02-06T03:58:47.462Z,1.60
2019-02-06T04:01:15.237Z,1.61
2019-02-06T04:03:42.294Z,1.65
2019-02-06T04:06:08.921Z,1.58
2019-02-06T04:08:35.452Z,1.75
2019-02-06T04:11:02.114Z,1.68
2019-02-06T04:13:28.682Z,1.79
2019-02-06T04:15:55.357Z,1.75
2019-02-06T04:18:22.041Z,1.74
2019-02-06T04:20:48.587Z,1.66
2019-02-06T04:23:16.484Z,1.69
2019-02-06T04:25:43.037Z,1.70
2019-02-06T04:28:09.739Z,1.87
2019-02-06T04:30:36.349Z,1.67
2019-02-06T04:33:02.964Z,1.80
2019-02-06T04:35:29.590Z,1.85
2019-02-06T04:37:56.184Z,1.86
2019-02-06T04:40:22.736Z,1.84
2019-02-06T04:42:49.913Z,1.87
2019-02-06T04:45:18.050Z,1.74
2019-02-06T04:47:44.759Z,1.68
2019-02-06T04:50:13.974Z,1.65
2019-02-06T04:52:40.576Z,1.82
2019-02-06T04:55:11.830Z,1.89
2019-02-06T04:57:38.649Z,1.83
2019-02-06T05:00:11.744Z,1.81
2019-02-06T05:02:38.325Z,1.79
2019-02-06T05:05:05.145Z,1.87
2019-02-06T05:07:31.796Z,1.79
2019-02-06T05:09:58.516Z,1.82
2019-02-06T05:12:25.151Z,1.83
2019-02-06T05:14:51.756Z,1.85
2019-02-06T05:17:18.747Z,2.01
2019-02-06T05:19:45.339Z,2.04
2019-02-06T05:22:11.975Z,1.97
2019-02-06T05:24:38.642Z,1.93
2019-02-06T05:27:05.182Z,2.03
2019-02-06T05:29:31.916Z,1.99
2019-02-06T05:31:58.628Z,2.13
2019-02-06T05:34:25.284Z,2.07
2019-02-06T05:36:51.893Z,1.98
2019-02-06T05:39:18.520Z,1.86
2019-02-06T05:41:45.085Z,1.90
2019-02-06T05:44:11.754Z,1.97
2019-02-06T05:46:38.372Z,1.99
2019-02-06T05:49:04.909Z,2.05
2019-02-06T05:51:31.536Z,1.98
2019-02-06T05:53:58.133Z,1.98
2019-02-06T05:56:24.742Z,2.01
2019-02-06T05:58:51.712Z,1.94
2019-02-06T06:01:20.334Z,2.11
2019-02-06T06:03:46.935Z,1.95
2019-02-06T06:06:13.544Z,2.02
2019-02-06T06:08:40.334Z,2.03
2019-02-06T06:11:07.045Z,1.87
2019-02-06T06:13:33.727Z,1.94
2019-02-06T06:16:00.390Z,1.96
2019-02-06T06:18:27.440Z,2.03
2019-02-06T06:20:55.724Z,2.13
2019-02-06T06:23:22.338Z,2.02
2019-02-06T06:25:48.877Z,2.14
2019-02-06T06:28:15.489Z,2.29
2019-02-06T06:30:42.192Z,2.07
2019-02-06T06:33:09.873Z,2.28
2019-02-06T06:35:36.655Z,2.07
2019-02-06T06:38:03.211Z,2.14
2019-02-06T06:40:30.030Z,1.97
2019-02-06T06:42:56.614Z,2.21
2019-02-06T06:45:24.021Z,2.13
2019-02-06T06:47:50.928Z,2.16
2019-02-06T06:50:22.905Z,2.27
2019-02-06T06:52:49.636Z,2.16
2019-02-06T06:55:16.307Z,2.09
2019-02-06T06:57:44.380Z,2.20
2019-02-06T07:00:16.254Z,2.27
2019-02-06T07:02:42.894Z,2.23
2019-02-06T07:05:13.260Z,2.10
2019-02-06T07:07:39.924Z,2.18
2019-02-06T07:10:12.377Z,2.20
2019-02-06T07:12:39.971Z,2.30
2019-02-06T07:15:12.274Z,2.42
2019-02-06T07:17:38.831Z,2.19
2019-02-06T07:20:10.586Z,2.26
2019-02-06T07:22:37.160Z,2.30
2019-02-06T07:25:06.714Z,2.25
2019-02-06T07:27:34.042Z,2.26
2019-02-06T07:30:00.607Z,2.12
2019-02-06T07:32:27.235Z,2.26
2019-02-06T07:34:53.782Z,2.41
2019-02-06T07:37:20.363Z,2.21
2019-02-06T07:39:46.992Z,2.31
2019-02-06T07:42:13.574Z,2.32
2019-02-06T07:44:40.311Z,2.40
2019-02-06T07:47:07.463Z,2.48
2019-02-06T07:49:34.063Z,2.30
2019-02-06T07:52:00.629Z,2.30
2019-02-06T07:54:27.317Z,2.34
2019-02-06T07:56:53.964Z,2.58
2019-02-06T07:59:20.778Z,2.33
2019-02-06T08:01:47.464Z,2.53
2019-02-06T08:04:14.334Z,2.56
2019-02-06T08:06:41.600Z,2.40
2019-02-06T08:09:08.377Z,2.50
2019-02-06T08:11:35.092Z,2.35
2019-02-06T08:14:01.707Z,2.42
2019-02-06T08:16:28.446Z,2.57
2019-02-06T08:18:55.139Z,2.75
2019-02-06T08:21:21.688Z,2.69
2019-02-06T08:23:48.317Z,2.57
2019-02-06T08:26:14.898Z,2.53
2019-02-06T08:28:41.821Z,2.62
2019-02-06T08:31:08.436Z,2.76
2019-02-06T08:33:35.076Z,2.56
2019-02-06T08:36:01.625Z,2.49
2019-02-06T08:38:28.242Z,2.72
2019-02-06T08:40:54.777Z,2.61
2019-02-06T08:43:21.376Z,2.76
2019-02-06T08:45:48.403Z,2.94
2019-02-06T08:48:14.958Z,2.97
2019-02-06T08:50:41.635Z,2.93
2019-02-06T08:53:08.284Z,2.92
2019-02-06T08:55:34.820Z,2.88
2019-02-06T08:58:01.364Z,3.08
2019-02-06T09:00:32.233Z,3.04
2019-02-06T09:03:00.247Z,3.03
2019-02-06T09:05:27.294Z,3.12
2019-02-06T09:07:53.940Z,3.21
2019-02-06T09:10:24.699Z,3.15
2019-02-06T09:12:52.548Z,3.28
2019-02-06T09:15:19.190Z,3.14
2019-02-06T09:17:45.826Z,3.26
2019-02-06T09:20:16.966Z,3.21
2019-02-06T09:22:44.050Z,3.26
2019-02-06T09:25:15.737Z,3.11
2019-02-06T09:27:42.523Z,3.31
2019-02-06T09:30:14.402Z,3.39
2019-02-06T09:32:41.466Z,3.26
2019-02-06T09:35:08.212Z,3.46
2019-02-06T09:37:35.069Z,3.17
2019-02-06T09:40:04.910Z,3.63
2019-02-06T09:42:31.476Z,3.67
2019-02-06T09:44:58.190Z,3.74
2019-02-06T09:47:25.138Z,3.40
2019-02-06T09:49:51.664Z,3.51
2019-02-06T09:52:18.396Z,3.37
2019-02-06T09:54:44.966Z,3.75
2019-02-06T09:57:11.555Z,3.84
2019-02-06T09:59:38.392Z,3.72
2019-02-06T10:02:05.009Z,3.89
2019-02-06T10:04:31.641Z,3.82
2019-02-06T10:06:58.245Z,3.69
2019-02-06T10:09:24.895Z,3.65
2019-02-06T10:11:51.560Z,3.66
2019-02-06T10:14:18.236Z,3.59
2019-02-06T10:16:44.839Z,3.72
2019-02-06T10:19:11.704Z,3.75
2019-02-06T10:21:38.312Z,3.45
2019-02-06T10:24:04.892Z,3.62
2019-02-06T10:26:31.439Z,3.79
2019-02-06T10:28:58.069Z,3.70
2019-02-06T10:31:24.702Z,3.86
2019-02-06T10:33:51.274Z,3.88
2019-02-06T10:36:18.128Z,3.88
2019-02-06T10:38:44.903Z,3.88
2019-02-06T10:41:11.473Z,3.90
2019-02-06T10:43:38.152Z,3.88
2019-02-06T10:46:04.709Z,3.72
2019-02-06T10:48:31.354Z,3.76
2019-02-06T10:50:58.547Z,3.91
2019-02-06T10:53:25.357Z,4.07
2019-02-06T10:56:48.274Z,4.02
2019-02-06T10:59:14.939Z,4.23
2019-02-06T11:01:42.147Z,3.98
2019-02-06T11:04:08.796Z,4.24
2019-02-06T11:06:35.562Z,4.33
2019-02-06T11:09:04.568Z,4.08
2019-02-06T11:11:32.738Z,4.14
2019-02-06T11:13:59.300Z,3.88
2019-02-06T11:16:25.851Z,4.15
2019-02-06T11:18:52.516Z,4.27
2019-02-06T11:21:19.358Z,4.36
2019-02-06T11:23:46.089Z,4.15
2019-02-06T11:26:12.721Z,4.07
2019-02-06T11:28:39.309Z,4.10
2019-02-06T11:31:06.202Z,4.31
2019-02-06T11:33:32.805Z,4.58
2019-02-06T11:35:59.436Z,4.49
2019-02-06T11:38:28.097Z,4.22
2019-02-06T11:40:54.524Z,4.08
2019-02-06T11:43:21.124Z,4.28
2019-02-06T11:45:47.682Z,4.48
2019-02-06T11:48:14.243Z,4.58
2019-02-06T11:50:41.959Z,4.66
2019-02-06T11:53:11.966Z,4.80
2019-02-06T11:55:38.586Z,4.76
2019-02-06T11:58:05.659Z,4.56
2019-02-06T12:00:34.135Z,4.41
2019-02-06T12:03:00.808Z,4.57
2019-02-06T12:05:27.549Z,4.41
2019-02-06T12:07:58.471Z,4.72
2019-02-06T12:10:30.007Z,4.94
2019-02-06T12:12:56.643Z,4.98
2019-02-06T12:15:23.752Z,5.05
2019-02-06T12:17:50.368Z,5.12
2019-02-06T12:20:20.669Z,4.98
2019-02-06T12:22:47.246Z,5.17
2019-02-06T12:25:15.947Z,4.92
2019-02-06T12:27:44.034Z,4.75
2019-02-06T12:30:16.399Z,4.72
2019-02-06T12:32:51.961Z,4.89
2019-02-06T12:35:11.794Z,4.60
2019-02-06T12:37:39.253Z,4.81
2019-02-06T12:40:20.759Z,4.96
2019-02-06T12:42:38.363Z,4.94
2019-02-06T12:45:09.924Z,4.80
2019-02-06T12:47:36.482Z,5.15
2019-02-06T12:50:07.983Z,5.27
2019-02-06T12:52:34.598Z,5.31
2019-02-06T12:55:01.242Z,5.45
2019-02-06T12:57:36.460Z,5.32
2019-02-06T12:59:56.311Z,5.43
2019-02-06T13:02:22.884Z,5.43
2019-02-06T13:04:49.524Z,5.55
2019-02-06T13:07:17.285Z,5.20
2019-02-06T13:09:44.163Z,5.24
2019-02-06T13:12:10.842Z,5.03
2019-02-06T13:14:37.506Z,5.23
2019-02-06T13:17:04.072Z,5.26
2019-02-06T13:19:30.696Z,5.21
2019-02-06T13:21:57.268Z,5.33
2019-02-06T13:24:23.856Z,4.87
2019-02-06T13:26:50.526Z,5.22
2019-02-06T13:29:17.530Z,5.09
2019-02-06T13:31:44.166Z,4.99
2019-02-06T13:34:10.755Z,4.77
2019-02-06T13:36:37.394Z,5.10
2019-02-06T13:39:08.459Z,5.08
2019-02-06T13:41:35.064Z,5.14
2019-02-06T13:44:01.632Z,5.14
2019-02-06T13:46:32.289Z,5.18
2019-02-06T13:48:59.781Z,5.04
2019-02-06T13:51:27.967Z,5.25
2019-02-06T13:53:54.534Z,5.27
2019-02-06T13:56:21.244Z,5.46
2019-02-06T13:58:47.889Z,5.44
2019-02-06T14:01:25.287Z,5.19
2019-02-06T14:03:43.580Z,5.29
2019-02-06T14:06:11.454Z,5.59
2019-02-06T14:08:38.352Z,5.65
2019-02-06T14:11:08.573Z,5.79
2019-02-06T14:13:35.329Z,5.42
2019-02-06T14:16:04.331Z,5.45
2019-02-06T14:18:30.963Z,5.59
2019-02-06T14:20:57.807Z,5.60
2019-02-06T14:23:30.458Z,5.57
2019-02-06T14:26:02.741Z,5.44
2019-02-06T14:28:44.499Z,5.23
2019-02-06T14:31:12.955Z,5.40
2019-02-06T14:33:45.957Z,5.43
2019-02-06T14:36:16.505Z,5.12
2019-02-06T14:38:49.058Z,5.23
2019-02-06T14:41:21.478Z,5.33
2019-02-06T14:43:55.236Z,5.49
2019-02-06T14:46:25.750Z,5.54
2019-02-06T14:48:56.207Z,5.48
2019-02-06T14:51:28.483Z,5.25
2019-02-06T14:54:00.859Z,5.06
2019-02-06T14:56:33.156Z,5.09
2019-02-06T14:59:03.588Z,5.04
2019-02-06T15:01:35.852Z,4.95
2019-02-06T15:04:08.304Z,4.94
2019-02-06T15:06:40.678Z,5.03
2019-02-06T15:09:11.235Z,4.83
2019-02-06T15:11:41.749Z,4.73
2019-02-06T15:14:14.084Z,4.70
2019-02-06T15:16:46.576Z,4.77
2019-02-06T15:19:19.009Z,4.56
2019-02-06T15:21:51.828Z,4.68
2019-02-06T15:24:24.154Z,4.63
2019-02-06T15:26:56.517Z,4.59
2019-02-06T15:29:26.971Z,4.52
2019-02-06T15:31:59.339Z,4.61
2019-02-06T15:34:32.308Z,4.57
2019-02-06T15:37:02.802Z,4.18
2019-02-06T15:39:36.360Z,4.22
2019-02-06T15:42:08.685Z,4.12
2019-02-06T15:44:39.168Z,4.21
2019-02-06T15:47:11.608Z,4.20
2019-02-06T15:49:46.700Z,4.18
2019-02-06T15:52:18.430Z,4.14
2019-02-06T15:54:47.260Z,4.20
2019-02-06T15:57:19.789Z,4.20
2019-02-06T15:59:52.248Z,4.21
2019-02-06T16:02:24.622Z,4.08
2019-02-06T16:04:59.097Z,4.05
2019-02-06T16:07:31.568Z,3.93
2019-02-06T16:10:04.414Z,3.83
2019-02-06T16:12:36.738Z,3.85
2019-02-06T16:15:09.184Z,3.97
2019-02-06T16:17:41.907Z,3.84
2019-02-06T16:20:12.384Z,3.80
2019-02-06T16:22:42.777Z,3.69
2019-02-06T16:25:13.233Z,3.64
2019-02-06T16:27:45.496Z,3.70
2019-02-06T16:30:18.033Z,3.54
2019-02-06T16:32:50.324Z,3.36
2019-02-06T16:35:23.178Z,3.20
2019-02-06T16:37:55.561Z,3.11
2019-02-06T16:40:26.088Z,2.92
2019-02-06T16:42:56.470Z,2.89
2019-02-06T16:45:28.884Z,2.75
2019-02-06T16:48:01.209Z,2.69
2019-02-06T16:50:33.564Z,2.66
2019-02-06T16:53:05.924Z,2.50
2019-02-06T16:55:38.281Z,2.43
2019-02-06T16:58:08.693Z,2.22
2019-02-06T17:00:41.106Z,2.11
2019-02-06T17:03:14.678Z,1.61
2019-02-06T17:05:50.225Z,1.27
2019-02-06T17:08:20.640Z,0.96
2019-02-06T17:10:53.404Z,0.76
2019-02-06T17:13:25.745Z,0.76
2019-02-06T17:15:58.190Z,0.73
2019-02-06T17:18:30.521Z,0.84
2019-02-06T17:21:01.017Z,0.85
2019-02-06T17:23:33.587Z,0.62
2019-02-06T17:26:05.921Z,0.37
2019-02-06T17:28:38.300Z,0.24
2019-02-06T17:31:08.895Z,0.27
2019-02-06T17:33:40.259Z,0.25
2019-02-06T17:36:12.668Z,0.16
2019-02-06T17:38:45.197Z,0.28
2019-02-06T17:41:13.875Z,0.16
2019-02-06T17:43:44.395Z,0.10
2019-02-06T17:46:17.211Z,-0.07
2019-02-06T17:48:49.663Z,-0.22
2019-02-06T17:51:22.141Z,-0.23
2019-02-06T17:53:54.487Z,-0.32
2019-02-06T17:56:21.314Z,-0.43
2019-02-06T17:58:48.275Z,-0.46
2019-02-06T18:01:20.323Z,-0.50
2019-02-06T18:03:48.310Z,-0.41
2019-02-06T18:06:15.570Z,-0.63
2019-02-06T18:08:42.328Z,-0.37
2019-02-06T18:11:09.043Z,-0.39
2019-02-06T18:13:35.595Z,-0.55
2019-02-06T18:16:03.016Z,-0.47
2019-02-06T18:18:29.696Z,-0.46
2019-02-06T18:20:56.467Z,-0.24
2019-02-06T18:23:23.167Z,-0.48
2019-02-06T18:25:50.342Z,-0.64
2019-02-06T18:28:16.972Z,-0.64
2019-02-06T18:30:43.774Z,-0.58
2019-02-06T18:33:12.244Z,-0.46
2019-02-06T18:35:39.083Z,-0.46
2019-02-06T18:38:06.122Z,-0.32
2019-02-06T18:40:32.673Z,-0.19
2019-02-06T18:42:59.352Z,-0.25
2019-02-06T18:45:27.872Z,-0.35
2019-02-06T18:48:00.126Z,-0.28
2019-02-06T18:50:31.184Z,-0.25
2019-02-06T18:52:58.070Z,-0.33
2019-02-06T18:55:24.770Z,-0.33
2019-02-06T18:57:52.117Z,-0.29
2019-02-06T19:00:24.054Z,-0.24
2019-02-06T19:02:50.901Z,-0.23
2019-02-06T19:05:23.555Z,-0.17
2019-02-06T19:07:50.287Z,-0.23
2019-02-06T19:10:20.110Z,-0.21
2019-02-06T19:12:48.941Z,-0.19
2019-02-06T19:15:16.797Z,-0.06
2019-02-06T19:17:47.865Z,-0.05
2019-02-06T19:20:17.390Z,-0.13
2019-02-06T19:22:44.760Z,-0.19
2019-02-06T19:25:14.367Z,-0.28
2019-02-06T19:27:41.213Z,-0.24
2019-02-06T19:30:13.767Z,-0.25
2019-02-06T19:32:40.546Z,-0.39
2019-02-06T19:35:08.808Z,-0.25
2019-02-06T19:37:35.550Z,-0.20
2019-02-06T19:40:06.882Z,-0.15
2019-02-06T19:42:36.453Z,-0.24
2019-02-06T19:45:07.327Z,-0.38
2019-02-06T19:47:34.009Z,-0.28
2019-02-06T19:50:07.181Z,-0.48
2019-02-06T19:52:34.311Z,-0.57
2019-02-06T19:55:01.901Z,-0.60
2019-02-06T19:57:30.112Z,-0.48
2019-02-06T20:00:55.166Z,-0.56
2019-02-06T20:03:22.468Z,-0.66
2019-02-06T20:05:49.270Z,-0.88
2019-02-06T20:08:16.808Z,-0.73
2019-02-06T20:10:48.117Z,-0.83
2019-02-06T20:13:14.993Z,-0.92
2019-02-06T20:15:42.919Z,-1.03
2019-02-06T20:18:10.237Z,-1.24
2019-02-06T20:20:37.233Z,-1.16
2019-02-06T20:23:04.922Z,-1.11
2019-02-06T20:25:32.022Z,-1.14
2019-02-06T20:27:59.242Z,-1.09
2019-02-06T20:30:29.751Z,-0.89
2019-02-06T20:32:59.810Z,-0.97
2019-02-06T20:35:32.239Z,-0.99
2019-02-06T20:38:00.614Z,-1.13
2019-02-06T20:40:30.900Z,-1.09
2019-02-06T20:42:57.928Z,-1.16
2019-02-06T20:45:25.139Z,-0.98
2019-02-06T20:47:52.246Z,-1.01
2019-02-06T20:50:24.076Z,-0.98
2019-02-06T20:52:50.916Z,-1.15
2019-02-06T20:55:20.086Z,-1.19
2019-02-06T20:57:47.709Z,-1.09
2019-02-06T21:00:19.124Z,-1.23
2019-02-06T21:02:45.965Z,-1.19
2019-02-06T21:05:13.468Z,-1.20
2019-02-06T21:07:40.205Z,-1.28
2019-02-06T21:10:13.044Z,-1.36
2019-02-06T21:12:41.067Z,-1.43
2019-02-06T21:15:09.270Z,-1.37
2019-02-06T21:17:36.135Z,-1.39
2019-02-06T21:20:10.229Z,-1.30
2019-02-06T21:22:36.928Z,-1.31
2019-02-06T21:25:09.631Z,-1.43
2019-02-06T21:27:36.688Z,-1.31
2019-02-06T21:30:11.778Z,-1.35
2019-02-06T21:32:39.289Z,-1.39
2019-02-06T21:35:07.760Z,-1.39
2019-02-06T21:37:34.475Z,-1.40
2019-02-06T21:40:01.457Z,-1.38
2019-02-06T21:42:28.390Z,-1.42
2019-02-06T21:44:55.042Z,-1.36
2019-02-06T21:47:21.768Z,-1.44
2019-02-06T21:49:49.436Z,-1.34
2019-02-06T21:52:17.681Z,-1.40
2019-02-06T21:54:44.459Z,-1.20
2019-02-06T21:57:11.195Z,-1.02
2019-02-06T21:59:37.790Z,-0.99
2019-02-06T22:02:05.069Z,-1.05
2019-02-06T22:04:31.801Z,-1.09
2019-02-06T22:06:58.513Z,-1.06
2019-02-06T22:09:25.126Z,-1.29
2019-02-06T22:11:51.851Z,-1.12
2019-02-06T22:14:18.634Z,-0.95
2019-02-06T22:16:45.298Z,-1.13
2019-02-06T22:19:13.391Z,-1.12
2019-02-06T22:21:40.997Z,-1.44
2019-02-06T22:24:07.713Z,-1.43
2019-02-06T22:26:34.371Z,-1.51
2019-02-06T22:29:01.059Z,-1.43
2019-02-06T22:31:27.797Z,-1.54
2019-02-06T22:33:54.528Z,-1.59
2019-02-06T22:36:23.409Z,-1.65
2019-02-06T22:38:50.253Z,-1.59
2019-02-06T22:41:16.804Z,-1.51
2019-02-06T22:43:43.867Z,-1.32
2019-02-06T22:46:10.676Z,-1.17
2019-02-06T22:48:37.406Z,-1.31
2019-02-06T22:51:04.118Z,-1.43
2019-02-06T22:53:30.808Z,-1.39
2019-02-06T22:55:57.386Z,-1.30
2019-02-06T22:58:24.570Z,-1.28
2019-02-06T23:00:57.942Z,-1.45
2019-02-06T23:03:29.808Z,-1.53
2019-02-06T23:05:56.853Z,-1.54
2019-02-06T23:08:23.585Z,-1.56
2019-02-06T23:10:50.299Z,-1.47
2019-02-06T23:13:17.537Z,-1.45
2019-02-06T23:15:44.594Z,-1.34
2019-02-06T23:18:11.412Z,-1.48
2019-02-06T23:20:38.217Z,-1.47
2019-02-06T23:23:04.872Z,-1.40
2019-02-06T23:25:31.647Z,-1.49
2019-02-06T23:27:58.446Z,-1.35
2019-02-06T23:30:25.872Z,-1.41
2019-02-06T23:32:52.594Z,-1.36
2019-02-06T23:35:19.203Z,-1.47
2019-02-06T23:37:45.751Z,-1.49
2019-02-06T23:40:14.813Z,-1.54
2019-02-06T23:42:43.488Z,-1.51
2019-02-06T23:45:10.434Z,-1.56
2019-02-06T23:47:37.389Z,-1.57
2019-02-06T23:50:09.600Z,-1.67
2019-02-06T23:52:36.179Z,-1.67
2019-02-06T23:55:05.734Z,-1.67
2019-02-06T23:57:32.321Z,-1.65
2019-02-06T23:59:59.237Z,-1.61
